sensor_id;sensor_type;location;lat;lon;timestamp;pressure;altitude;pressure_sealevel;temperature;humidity
43071;BME280;36278;47.952;21.714;2023-12-14T07:05:15;99271.88;;;4.68;100.00
43071;BME280;36278;47.952;21.714;2023-12-14T07:07:41;99273.75;;;4.79;100.00
43071;BME280;36278;47.952;21.714;2023-12-14T07:10:07;99274.06;;;4.87;100.00
43071;BME280;36278;47.952;21.714;2023-12-14T07:12:32;99290.88;;;4.97;100.00
43071;BME280;36278;47.952;21.714;2023-12-14T07:14:58;99287.41;;;4.97;100.00
43071;BME280;36278;47.952;21.714;2023-12-14T07:17:23;99303.38;;;5.06;100.00
43071;BME280;36278;47.952;21.714;2023-12-14T07:19:51;99303.78;;;5.00;100.00
43071;BME280;36278;47.952;21.714;2023-12-14T07:22:16;99298.31;;;5.03;100.00
43071;BME280;36278;47.952;21.714;2023-12-14T07:24:42;99310.38;;;5.19;100.00
43071;BME280;36278;47.952;21.714;2023-12-14T07:27:08;99316.34;;;5.21;100.00
43071;BME280;36278;47.952;21.714;2023-12-14T07:29:33;99327.81;;;5.07;100.00
43071;BME280;36278;47.952;21.714;2023-12-14T07:31:59;99321.09;;;5.03;100.00
43071;BME280;36278;47.952;21.714;2023-12-14T07:34:24;99333.38;;;5.15;100.00
43071;BME280;36278;47.952;21.714;2023-12-14T07:36:53;99336.00;;;5.02;100.00
43071;BME280;36278;47.952;21.714;2023-12-14T07:39:19;99335.88;;;5.04;100.00
43071;BME280;36278;47.952;21.714;2023-12-14T07:41:44;99334.03;;;5.06;100.00
43071;BME280;36278;47.952;21.714;2023-12-14T07:44:10;99343.69;;;5.05;100.00
43071;BME280;36278;47.952;21.714;2023-12-14T07:46:35;99339.06;;;5.09;100.00
43071;BME280;36278;47.952;21.714;2023-12-14T07:49:04;99347.22;;;5.04;100.00
43071;BME280;36278;47.952;21.714;2023-12-14T07:51:30;99349.56;;;5.09;100.00
43071;BME280;36278;47.952;21.714;2023-12-14T07:53:56;99343.25;;;5.24;100.00
43071;BME280;36278;47.952;21.714;2023-12-14T07:56:21;99350.59;;;5.32;100.00
43071;BME280;36278;47.952;21.714;2023-12-14T07:58:50;99348.91;;;5.31;100.00
43071;BME280;36278;47.952;21.714;2023-12-14T08:01:16;99344.41;;;5.33;100.00
43071;BME280;36278;47.952;21.714;2023-12-14T08:03:41;99353.31;;;5.43;100.00
43071;BME280;36278;47.952;21.714;2023-12-14T08:06:07;99358.75;;;5.53;100.00
43071;BME280;36278;47.952;21.714;2023-12-14T08:08:35;99362.31;;;5.52;100.00
43071;BME280;36278;47.952;21.714;2023-12-14T08:11:03;99372.63;;;5.55;100.00
43071;BME280;36278;47.952;21.714;2023-12-14T08:13:30;99367.28;;;5.56;100.00
43071;BME280;36278;47.952;21.714;2023-12-14T08:15:55;99379.16;;;5.49;100.00
43071;BME280;36278;47.952;21.714;2023-12-14T08:18:21;99383.22;;;5.66;100.00
43071;BME280;36278;47.952;21.714;2023-12-14T08:20:46;99383.34;;;5.65;100.00
43071;BME280;36278;47.952;21.714;2023-12-14T08:23:12;99387.03;;;5.62;100.00
43071;BME280;36278;47.952;21.714;2023-12-14T08:25:37;99394.34;;;5.70;100.00
43071;BME280;36278;47.952;21.714;2023-12-14T08:28:03;99401.00;;;5.62;100.00
43071;BME280;36278;47.952;21.714;2023-12-14T08:30:28;99405.19;;;5.65;100.00
43071;BME280;36278;47.952;21.714;2023-12-14T08:32:54;99412.31;;;5.76;100.00
43071;BME280;36278;47.952;21.714;2023-12-14T08:35:21;99409.25;;;5.82;100.00
43071;BME280;36278;47.952;21.714;2023-12-14T08:37:46;99421.03;;;5.89;100.00
43071;BME280;36278;47.952;21.714;2023-12-14T08:40:12;99420.19;;;5.88;100.00
43071;BME280;36278;47.952;21.714;2023-12-14T08:42:38;99424.81;;;5.85;100.00
43071;BME280;36278;47.952;21.714;2023-12-14T08:45:03;99425.13;;;5.93;100.00
43071;BME280;36278;47.952;21.714;2023-12-14T08:47:29;99432.06;;;5.94;100.00
43071;BME280;36278;47.952;21.714;2023-12-14T08:49:55;99432.81;;;5.96;100.00
43071;BME280;36278;47.952;21.714;2023-12-14T08:52:20;99439.41;;;6.02;100.00
43071;BME280;36278;47.952;21.714;2023-12-14T08:54:45;99442.88;;;6.02;100.00
43071;BME280;36278;47.952;21.714;2023-12-14T08:57:11;99436.88;;;6.13;100.00
43071;BME280;36278;47.952;21.714;2023-12-14T08:59:37;99454.38;;;6.25;100.00
43071;BME280;36278;47.952;21.714;2023-12-14T09:02:02;99452.16;;;6.32;100.00
43071;BME280;36278;47.952;21.714;2023-12-14T09:04:28;99453.53;;;6.37;100.00
43071;BME280;36278;47.952;21.714;2023-12-14T09:06:53;99455.03;;;6.29;100.00
43071;BME280;36278;47.952;21.714;2023-12-14T09:09:19;99445.78;;;6.23;100.00
43071;BME280;36278;47.952;21.714;2023-12-14T09:11:45;99452.81;;;6.35;100.00
43071;BME280;36278;47.952;21.714;2023-12-14T09:14:10;99457.84;;;6.26;100.00
43071;BME280;36278;47.952;21.714;2023-12-14T09:16:36;99450.50;;;6.31;100.00
43071;BME280;36278;47.952;21.714;2023-12-14T09:19:01;99463.53;;;6.32;100.00
43071;BME280;36278;47.952;21.714;2023-12-14T09:21:27;99458.44;;;6.42;100.00
43071;BME280;36278;47.952;21.714;2023-12-14T09:23:53;99460.13;;;6.43;100.00
43071;BME280;36278;47.952;21.714;2023-12-14T09:26:21;99462.16;;;6.63;100.00
43071;BME280;36278;47.952;21.714;2023-12-14T09:28:47;99470.88;;;6.64;100.00
43071;BME280;36278;47.952;21.714;2023-12-14T09:31:13;99463.31;;;6.59;100.00
43071;BME280;36278;47.952;21.714;2023-12-14T09:33:41;99471.97;;;6.61;100.00
43071;BME280;36278;47.952;21.714;2023-12-14T09:36:07;99469.09;;;6.64;100.00
43071;BME280;36278;47.952;21.714;2023-12-14T09:38:33;99466.75;;;6.72;100.00
43071;BME280;36278;47.952;21.714;2023-12-14T09:40:58;99451.06;;;6.71;100.00
43071;BME280;36278;47.952;21.714;2023-12-14T09:43:24;99466.13;;;6.69;100.00
43071;BME280;36278;47.952;21.714;2023-12-14T09:45:50;99476.88;;;6.66;100.00
43071;BME280;36278;47.952;21.714;2023-12-14T09:48:16;99479.91;;;6.72;100.00
43071;BME280;36278;47.952;21.714;2023-12-14T09:50:42;99474.44;;;6.52;100.00
43071;BME280;36278;47.952;21.714;2023-12-14T09:53:08;99484.94;;;6.52;100.00
43071;BME280;36278;47.952;21.714;2023-12-14T09:55:34;99490.94;;;6.54;100.00
43071;BME280;36278;47.952;21.714;2023-12-14T09:58:00;99484.00;;;6.53;100.00
43071;BME280;36278;47.952;21.714;2023-12-14T10:00:36;99491.25;;;6.49;100.00
43071;BME280;36278;47.952;21.714;2023-12-14T10:03:23;99497.41;;;6.37;100.00
43071;BME280;36278;47.952;21.714;2023-12-14T10:05:52;99496.03;;;6.44;100.00
43071;BME280;36278;47.952;21.714;2023-12-14T10:08:18;99501.59;;;6.39;100.00
43071;BME280;36278;47.952;21.714;2023-12-14T10:10:44;99497.28;;;6.38;100.00
43071;BME280;36278;47.952;21.714;2023-12-14T10:13:10;99502.84;;;6.46;100.00
43071;BME280;36278;47.952;21.714;2023-12-14T10:15:44;99511.16;;;6.53;100.00
43071;BME280;36278;47.952;21.714;2023-12-14T10:18:10;99512.03;;;6.65;100.00
43071;BME280;36278;47.952;21.714;2023-12-14T10:20:36;99506.34;;;6.71;100.00
43071;BME280;36278;47.952;21.714;2023-12-14T10:23:04;99511.59;;;6.71;100.00
43071;BME280;36278;47.952;21.714;2023-12-14T10:25:30;99515.25;;;6.81;100.00
43071;BME280;36278;47.952;21.714;2023-12-14T10:27:57;99512.19;;;6.74;100.00
43071;BME280;36278;47.952;21.714;2023-12-14T10:30:23;99523.91;;;6.70;100.00
43071;BME280;36278;47.952;21.714;2023-12-14T10:32:49;99520.56;;;6.68;100.00
43071;BME280;36278;47.952;21.714;2023-12-14T10:35:16;99524.72;;;6.60;100.00
43071;BME280;36278;47.952;21.714;2023-12-14T10:37:43;99529.09;;;6.59;100.00
43071;BME280;36278;47.952;21.714;2023-12-14T10:40:11;99525.63;;;6.59;100.00
43071;BME280;36278;47.952;21.714;2023-12-14T10:42:41;99526.09;;;6.53;100.00
43071;BME280;36278;47.952;21.714;2023-12-14T10:45:08;99533.94;;;6.65;100.00
43071;BME280;36278;47.952;21.714;2023-12-14T10:47:37;99536.97;;;6.72;100.00
43071;BME280;36278;47.952;21.714;2023-12-14T10:50:05;99543.78;;;6.74;100.00
43071;BME280;36278;47.952;21.714;2023-12-14T10:52:31;99532.78;;;6.69;100.00
43071;BME280;36278;47.952;21.714;2023-12-14T10:55:07;99553.03;;;6.80;100.00
43071;BME280;36278;47.952;21.714;2023-12-14T10:57:34;99547.19;;;6.77;100.00
43071;BME280;36278;47.952;21.714;2023-12-14T11:00:03;99550.97;;;6.72;100.00
43071;BME280;36278;47.952;21.714;2023-12-14T11:02:40;99554.88;;;6.67;100.00
43071;BME280;36278;47.952;21.714;2023-12-14T11:05:15;99534.81;;;6.53;100.00
43071;BME280;36278;47.952;21.714;2023-12-14T11:07:52;99560.19;;;6.54;100.00
43071;BME280;36278;47.952;21.714;2023-12-14T11:10:22;99566.59;;;6.50;100.00
43071;BME280;36278;47.952;21.714;2023-12-14T11:12:54;99575.03;;;6.42;100.00
43071;BME280;36278;47.952;21.714;2023-12-14T11:15:22;99573.81;;;6.35;100.00
43071;BME280;36278;47.952;21.714;2023-12-14T11:20:49;99572.31;;;6.44;100.00
43071;BME280;36278;47.952;21.714;2023-12-14T11:25:52;99583.97;;;6.53;100.00
43071;BME280;36278;47.952;21.714;2023-12-14T11:28:20;99590.69;;;6.57;100.00
43071;BME280;36278;47.952;21.714;2023-12-14T11:30:49;99584.34;;;6.59;100.00
43071;BME280;36278;47.952;21.714;2023-12-14T11:33:16;99596.91;;;6.56;100.00
43071;BME280;36278;47.952;21.714;2023-12-14T11:35:42;99601.84;;;6.60;100.00
43071;BME280;36278;47.952;21.714;2023-12-14T11:38:07;99583.38;;;6.36;100.00
43071;BME280;36278;47.952;21.714;2023-12-14T11:40:39;99594.94;;;6.46;100.00
43071;BME280;36278;47.952;21.714;2023-12-14T11:43:05;99604.19;;;6.52;100.00
43071;BME280;36278;47.952;21.714;2023-12-14T11:45:37;99604.19;;;6.52;100.00
43071;BME280;36278;47.952;21.714;2023-12-14T11:48:05;99611.75;;;6.57;100.00
43071;BME280;36278;47.952;21.714;2023-12-14T11:50:32;99595.66;;;6.49;100.00
43071;BME280;36278;47.952;21.714;2023-12-14T11:53:02;99610.91;;;6.56;100.00
43071;BME280;36278;47.952;21.714;2023-12-14T11:55:32;99607.13;;;6.35;100.00
43071;BME280;36278;47.952;21.714;2023-12-14T11:57:59;99605.78;;;6.29;100.00
43071;BME280;36278;47.952;21.714;2023-12-14T12:00:29;99598.22;;;6.37;100.00
43071;BME280;36278;47.952;21.714;2023-12-14T12:03:16;99608.50;;;6.40;100.00
43071;BME280;36278;47.952;21.714;2023-12-14T12:05:44;99610.63;;;6.23;100.00
43071;BME280;36278;47.952;21.714;2023-12-14T12:08:12;99613.56;;;6.31;100.00
43071;BME280;36278;47.952;21.714;2023-12-14T12:10:42;99622.72;;;6.25;100.00
43071;BME280;36278;47.952;21.714;2023-12-14T12:13:12;99627.97;;;6.25;100.00
43071;BME280;36278;47.952;21.714;2023-12-14T12:15:39;99626.59;;;6.32;100.00
43071;BME280;36278;47.952;21.714;2023-12-14T12:18:09;99627.03;;;6.39;100.00
43071;BME280;36278;47.952;21.714;2023-12-14T12:20:35;99634.91;;;6.39;100.00
43071;BME280;36278;47.952;21.714;2023-12-14T12:23:01;99643.13;;;6.34;100.00
43071;BME280;36278;47.952;21.714;2023-12-14T12:25:29;99640.78;;;6.42;100.00
43071;BME280;36278;47.952;21.714;2023-12-14T12:27:54;99641.97;;;6.26;100.00
43071;BME280;36278;47.952;21.714;2023-12-14T12:30:21;99646.59;;;6.35;100.00
43071;BME280;36278;47.952;21.714;2023-12-14T12:32:47;99653.34;;;6.13;100.00
43071;BME280;36278;47.952;21.714;2023-12-14T12:35:13;99650.16;;;6.08;100.00
43071;BME280;36278;47.952;21.714;2023-12-14T12:37:39;99648.91;;;6.14;100.00
43071;BME280;36278;47.952;21.714;2023-12-14T12:40:05;99648.91;;;6.27;100.00
43071;BME280;36278;47.952;21.714;2023-12-14T12:42:32;99651.44;;;6.28;100.00
43071;BME280;36278;47.952;21.714;2023-12-14T12:44:57;99660.06;;;6.30;100.00
43071;BME280;36278;47.952;21.714;2023-12-14T12:47:23;99661.97;;;6.28;100.00
43071;BME280;36278;47.952;21.714;2023-12-14T12:49:49;99667.84;;;6.32;100.00
43071;BME280;36278;47.952;21.714;2023-12-14T12:52:15;99673.75;;;6.35;100.00
43071;BME280;36278;47.952;21.714;2023-12-14T12:54:41;99666.72;;;6.36;100.00
43071;BME280;36278;47.952;21.714;2023-12-14T12:57:06;99679.66;;;6.39;100.00
43071;BME280;36278;47.952;21.714;2023-12-14T12:59:32;99673.94;;;6.32;100.00
43071;BME280;36278;47.952;21.714;2023-12-14T13:01:58;99683.34;;;6.36;100.00
43071;BME280;36278;47.952;21.714;2023-12-14T13:04:24;99680.69;;;6.36;100.00
43071;BME280;36278;47.952;21.714;2023-12-14T13:06:52;99679.00;;;6.48;100.00
43071;BME280;36278;47.952;21.714;2023-12-14T13:09:18;99686.34;;;6.43;100.00
43071;BME280;36278;47.952;21.714;2023-12-14T13:11:46;99692.16;;;6.48;100.00
43071;BME280;36278;47.952;21.714;2023-12-14T13:14:12;99701.63;;;6.38;100.00
43071;BME280;36278;47.952;21.714;2023-12-14T13:16:40;99696.56;;;6.35;100.00
43071;BME280;36278;47.952;21.714;2023-12-14T13:19:06;99699.81;;;6.26;100.00
43071;BME280;36278;47.952;21.714;2023-12-14T13:21:32;99704.88;;;6.16;100.00
43071;BME280;36278;47.952;21.714;2023-12-14T13:24:04;99720.53;;;6.17;100.00
43071;BME280;36278;47.952;21.714;2023-12-14T13:26:30;99724.28;;;6.01;100.00
43071;BME280;36278;47.952;21.714;2023-12-14T13:28:56;99729.69;;;6.12;100.00
43071;BME280;36278;47.952;21.714;2023-12-14T13:31:23;99735.81;;;6.12;100.00
43071;BME280;36278;47.952;21.714;2023-12-14T13:33:49;99733.22;;;5.98;100.00
43071;BME280;36278;47.952;21.714;2023-12-14T13:36:18;99742.59;;;6.02;100.00
43071;BME280;36278;47.952;21.714;2023-12-14T13:38:45;99743.53;;;6.01;100.00
43071;BME280;36278;47.952;21.714;2023-12-14T13:41:11;99750.25;;;5.93;100.00
43071;BME280;36278;47.952;21.714;2023-12-14T13:43:36;99757.41;;;5.90;100.00
43071;BME280;36278;47.952;21.714;2023-12-14T13:46:03;99753.31;;;5.99;100.00
43071;BME280;36278;47.952;21.714;2023-12-14T13:48:29;99765.53;;;6.00;100.00
43071;BME280;36278;47.952;21.714;2023-12-14T13:50:56;99769.19;;;5.98;100.00
43071;BME280;36278;47.952;21.714;2023-12-14T13:53:23;99767.97;;;5.89;100.00
43071;BME280;36278;47.952;21.714;2023-12-14T13:55:49;99779.63;;;5.85;100.00
43071;BME280;36278;47.952;21.714;2023-12-14T13:58:15;99771.94;;;5.82;100.00
43071;BME280;36278;47.952;21.714;2023-12-14T14:00:41;99781.50;;;5.83;100.00
43071;BME280;36278;47.952;21.714;2023-12-14T14:03:07;99790.13;;;5.85;100.00
43071;BME280;36278;47.952;21.714;2023-12-14T14:05:33;99791.94;;;5.84;100.00
43071;BME280;36278;47.952;21.714;2023-12-14T14:07:59;99802.16;;;5.89;100.00
43071;BME280;36278;47.952;21.714;2023-12-14T14:10:25;99802.34;;;5.86;100.00
43071;BME280;36278;47.952;21.714;2023-12-14T14:12:51;99799.34;;;5.78;100.00
43071;BME280;36278;47.952;21.714;2023-12-14T14:15:17;99809.88;;;5.78;100.00
43071;BME280;36278;47.952;21.714;2023-12-14T14:17:43;99817.97;;;5.75;100.00
43071;BME280;36278;47.952;21.714;2023-12-14T14:20:09;99815.13;;;5.78;100.00
43071;BME280;36278;47.952;21.714;2023-12-14T14:22:38;99816.84;;;5.79;100.00
43071;BME280;36278;47.952;21.714;2023-12-14T14:25:07;99831.66;;;5.80;100.00
43071;BME280;36278;47.952;21.714;2023-12-14T14:27:33;99833.84;;;5.73;100.00
43071;BME280;36278;47.952;21.714;2023-12-14T14:29:59;99839.09;;;5.73;100.00
43071;BME280;36278;47.952;21.714;2023-12-14T14:32:26;99854.75;;;5.75;100.00
43071;BME280;36278;47.952;21.714;2023-12-14T14:34:51;99859.75;;;5.65;100.00
43071;BME280;36278;47.952;21.714;2023-12-14T14:37:18;99862.84;;;5.57;100.00
43071;BME280;36278;47.952;21.714;2023-12-14T14:39:44;99865.00;;;5.51;100.00
43071;BME280;36278;47.952;21.714;2023-12-14T14:42:10;99851.81;;;5.38;100.00
43071;BME280;36278;47.952;21.714;2023-12-14T14:44:36;99862.31;;;5.38;100.00
43071;BME280;36278;47.952;21.714;2023-12-14T14:47:02;99873.38;;;5.43;100.00
43071;BME280;36278;47.952;21.714;2023-12-14T14:49:27;99864.06;;;5.52;100.00
43071;BME280;36278;47.952;21.714;2023-12-14T14:51:54;99866.91;;;5.49;100.00
43071;BME280;36278;47.952;21.714;2023-12-14T14:54:20;99877.31;;;5.50;100.00
43071;BME280;36278;47.952;21.714;2023-12-14T14:56:46;99883.59;;;5.62;100.00
43071;BME280;36278;47.952;21.714;2023-12-14T14:59:12;99886.97;;;5.64;100.00
43071;BME280;36278;47.952;21.714;2023-12-14T15:01:41;99898.44;;;5.63;100.00
43071;BME280;36278;47.952;21.714;2023-12-14T15:04:07;99903.69;;;5.63;100.00
43071;BME280;36278;47.952;21.714;2023-12-14T15:06:32;99895.50;;;5.53;100.00
43071;BME280;36278;47.952;21.714;2023-12-14T15:08:59;99904.78;;;5.59;100.00
43071;BME280;36278;47.952;21.714;2023-12-14T15:11:32;99907.34;;;5.46;100.00
43071;BME280;36278;47.952;21.714;2023-12-14T15:13:58;99908.44;;;5.42;100.00
43071;BME280;36278;47.952;21.714;2023-12-14T15:16:24;99906.66;;;5.28;100.00
43071;BME280;36278;47.952;21.714;2023-12-14T15:18:53;99896.34;;;5.25;100.00
43071;BME280;36278;47.952;21.714;2023-12-14T15:21:19;99901.88;;;5.35;100.00
43071;BME280;36278;47.952;21.714;2023-12-14T15:23:44;99884.34;;;5.35;100.00
43071;BME280;36278;47.952;21.714;2023-12-14T15:26:12;99904.72;;;5.46;100.00
43071;BME280;36278;47.952;21.714;2023-12-14T15:28:37;99912.88;;;5.42;100.00
43071;BME280;36278;47.952;21.714;2023-12-14T15:31:03;99906.97;;;5.38;100.00
43071;BME280;36278;47.952;21.714;2023-12-14T15:33:29;99915.97;;;5.48;100.00
43071;BME280;36278;47.952;21.714;2023-12-14T15:35:55;99909.97;;;5.46;100.00
43071;BME280;36278;47.952;21.714;2023-12-14T15:38:20;99912.41;;;5.49;100.00
43071;BME280;36278;47.952;21.714;2023-12-14T15:40:45;99914.38;;;5.46;100.00
43071;BME280;36278;47.952;21.714;2023-12-14T15:43:11;99919.22;;;5.23;100.00
43071;BME280;36278;47.952;21.714;2023-12-14T15:45:37;99909.09;;;5.17;100.00
43071;BME280;36278;47.952;21.714;2023-12-14T15:48:03;99916.16;;;5.31;100.00
43071;BME280;36278;47.952;21.714;2023-12-14T15:50:29;99915.84;;;5.35;100.00
43071;BME280;36278;47.952;21.714;2023-12-14T15:52:55;99916.50;;;5.25;100.00
43071;BME280;36278;47.952;21.714;2023-12-14T15:55:20;99920.56;;;5.30;100.00
43071;BME280;36278;47.952;21.714;2023-12-14T15:57:48;99927.19;;;5.36;100.00
43071;BME280;36278;47.952;21.714;2023-12-14T16:00:15;99929.09;;;5.34;100.00
43071;BME280;36278;47.952;21.714;2023-12-14T16:02:43;99938.03;;;5.46;100.00
43071;BME280;36278;47.952;21.714;2023-12-14T16:05:08;99926.56;;;5.47;100.00
43071;BME280;36278;47.952;21.714;2023-12-14T16:07:35;99940.56;;;5.47;100.00
43071;BME280;36278;47.952;21.714;2023-12-14T16:10:01;99939.22;;;5.40;100.00
43071;BME280;36278;47.952;21.714;2023-12-14T16:12:26;99932.56;;;5.34;100.00
43071;BME280;36278;47.952;21.714;2023-12-14T16:14:52;99939.59;;;5.34;100.00
43071;BME280;36278;47.952;21.714;2023-12-14T16:17:21;99939.22;;;5.26;100.00
43071;BME280;36278;47.952;21.714;2023-12-14T16:19:46;99951.97;;;5.32;100.00
43071;BME280;36278;47.952;21.714;2023-12-14T16:22:12;99954.31;;;5.22;100.00
43071;BME280;36278;47.952;21.714;2023-12-14T16:24:37;99948.56;;;5.16;100.00
43071;BME280;36278;47.952;21.714;2023-12-14T16:27:03;99964.31;;;5.16;100.00
43071;BME280;36278;47.952;21.714;2023-12-14T16:29:29;99968.25;;;5.09;100.00
43071;BME280;36278;47.952;21.714;2023-12-14T16:31:54;99982.22;;;5.09;100.00
43071;BME280;36278;47.952;21.714;2023-12-14T16:34:20;99984.25;;;5.04;100.00
43071;BME280;36278;47.952;21.714;2023-12-14T16:36:49;99993.28;;;4.84;100.00
43071;BME280;36278;47.952;21.714;2023-12-14T16:39:14;99988.78;;;4.86;100.00
43071;BME280;36278;47.952;21.714;2023-12-14T16:41:40;99994.38;;;4.80;100.00
43071;BME280;36278;47.952;21.714;2023-12-14T16:44:06;100001.34;;;4.81;100.00
43071;BME280;36278;47.952;21.714;2023-12-14T16:46:32;100001.78;;;4.73;100.00
43071;BME280;36278;47.952;21.714;2023-12-14T16:48:58;100008.03;;;4.71;100.00
43071;BME280;36278;47.952;21.714;2023-12-14T16:51:24;100002.38;;;4.63;100.00
43071;BME280;36278;47.952;21.714;2023-12-14T16:53:51;100010.59;;;4.57;100.00
43071;BME280;36278;47.952;21.714;2023-12-14T16:56:17;100015.56;;;4.61;100.00
43071;BME280;36278;47.952;21.714;2023-12-14T16:58:44;100012.19;;;4.59;100.00
43071;BME280;36278;47.952;21.714;2023-12-14T17:01:10;100024.78;;;4.68;100.00
43071;BME280;36278;47.952;21.714;2023-12-14T17:03:36;100023.19;;;4.66;100.00
43071;BME280;36278;47.952;21.714;2023-12-14T17:06:02;100030.47;;;4.76;100.00
43071;BME280;36278;47.952;21.714;2023-12-14T17:08:28;100044.84;;;4.85;100.00
43071;BME280;36278;47.952;21.714;2023-12-14T17:10:54;100040.28;;;4.89;100.00
43071;BME280;36278;47.952;21.714;2023-12-14T17:13:24;100047.88;;;4.77;100.00
43071;BME280;36278;47.952;21.714;2023-12-14T17:15:50;100062.56;;;4.66;100.00
43071;BME280;36278;47.952;21.714;2023-12-14T17:18:15;100058.38;;;4.62;100.00
43071;BME280;36278;47.952;21.714;2023-12-14T17:20:41;100070.56;;;4.63;100.00
43071;BME280;36278;47.952;21.714;2023-12-14T17:23:06;100080.75;;;4.69;100.00
43071;BME280;36278;47.952;21.714;2023-12-14T17:25:32;100068.63;;;4.50;100.00
43071;BME280;36278;47.952;21.714;2023-12-14T17:27:58;100097.00;;;4.60;100.00
43071;BME280;36278;47.952;21.714;2023-12-14T17:30:24;100096.81;;;4.63;100.00
43071;BME280;36278;47.952;21.714;2023-12-14T17:32:49;100092.41;;;4.63;100.00
43071;BME280;36278;47.952;21.714;2023-12-14T17:35:15;100098.16;;;4.70;100.00
43071;BME280;36278;47.952;21.714;2023-12-14T17:37:41;100110.63;;;4.82;100.00
43071;BME280;36278;47.952;21.714;2023-12-14T17:40:07;100115.09;;;4.80;100.00
43071;BME280;36278;47.952;21.714;2023-12-14T17:42:32;100118.06;;;4.74;100.00
43071;BME280;36278;47.952;21.714;2023-12-14T17:45:00;100113.50;;;4.77;100.00
43071;BME280;36278;47.952;21.714;2023-12-14T17:47:26;100122.13;;;4.79;100.00
43071;BME280;36278;47.952;21.714;2023-12-14T17:49:52;100125.94;;;4.74;100.00
43071;BME280;36278;47.952;21.714;2023-12-14T17:52:17;100126.19;;;4.85;100.00
43071;BME280;36278;47.952;21.714;2023-12-14T17:54:42;100131.25;;;4.88;100.00
43071;BME280;36278;47.952;21.714;2023-12-14T17:57:08;100129.09;;;4.81;100.00
43071;BME280;36278;47.952;21.714;2023-12-14T17:59:34;100124.16;;;4.74;100.00
43071;BME280;36278;47.952;21.714;2023-12-14T18:01:59;100137.44;;;4.71;100.00
43071;BME280;36278;47.952;21.714;2023-12-14T18:04:25;100134.75;;;4.73;100.00
43071;BME280;36278;47.952;21.714;2023-12-14T18:06:51;100146.75;;;4.77;100.00
43071;BME280;36278;47.952;21.714;2023-12-14T18:09:16;100149.22;;;4.80;100.00
43071;BME280;36278;47.952;21.714;2023-12-14T18:11:43;100155.22;;;4.66;100.00
43071;BME280;36278;47.952;21.714;2023-12-14T18:14:09;100153.25;;;4.54;100.00
43071;BME280;36278;47.952;21.714;2023-12-14T18:16:36;100163.16;;;4.49;100.00
43071;BME280;36278;47.952;21.714;2023-12-14T18:19:05;100104.31;;;4.04;100.00
43071;BME280;36278;47.952;21.714;2023-12-14T18:21:31;100174.44;;;4.34;100.00
43071;BME280;36278;47.952;21.714;2023-12-14T18:23:56;100174.44;;;4.34;100.00
43071;BME280;36278;47.952;21.714;2023-12-14T18:26:23;100173.97;;;4.43;100.00
43071;BME280;36278;47.952;21.714;2023-12-14T18:28:50;100180.91;;;4.44;100.00
43071;BME280;36278;47.952;21.714;2023-12-14T18:31:16;100180.38;;;4.37;100.00
43071;BME280;36278;47.952;21.714;2023-12-14T18:33:42;100192.84;;;4.49;100.00
43071;BME280;36278;47.952;21.714;2023-12-14T18:36:07;100198.38;;;4.61;100.00
43071;BME280;36278;47.952;21.714;2023-12-14T18:38:33;100185.25;;;4.61;100.00
43071;BME280;36278;47.952;21.714;2023-12-14T18:41:02;100204.06;;;4.69;100.00
43071;BME280;36278;47.952;21.714;2023-12-14T18:43:28;100202.03;;;4.74;100.00
43071;BME280;36278;47.952;21.714;2023-12-14T18:45:53;100199.75;;;4.68;100.00
43071;BME280;36278;47.952;21.714;2023-12-14T18:48:19;100207.69;;;4.66;100.00
43071;BME280;36278;47.952;21.714;2023-12-14T18:50:46;100211.00;;;4.70;100.00
43071;BME280;36278;47.952;21.714;2023-12-14T18:53:11;100213.63;;;4.70;100.00
43071;BME280;36278;47.952;21.714;2023-12-14T18:55:37;100212.19;;;4.64;100.00
43071;BME280;36278;47.952;21.714;2023-12-14T18:58:06;100208.88;;;4.61;100.00
43071;BME280;36278;47.952;21.714;2023-12-14T19:00:32;100216.56;;;4.64;100.00
43071;BME280;36278;47.952;21.714;2023-12-14T19:03:00;100228.28;;;4.74;100.00
43071;BME280;36278;47.952;21.714;2023-12-14T19:05:26;100229.88;;;4.76;100.00
43071;BME280;36278;47.952;21.714;2023-12-14T19:07:53;100231.91;;;4.71;100.00
43071;BME280;36278;47.952;21.714;2023-12-14T19:10:19;100243.41;;;4.69;100.00
43071;BME280;36278;47.952;21.714;2023-12-14T19:12:48;100252.00;;;4.72;100.00
43071;BME280;36278;47.952;21.714;2023-12-14T19:15:14;100245.81;;;4.73;100.00
43071;BME280;36278;47.952;21.714;2023-12-14T19:17:41;100253.59;;;4.75;100.00
43071;BME280;36278;47.952;21.714;2023-12-14T19:20:11;100262.22;;;4.77;100.00
43071;BME280;36278;47.952;21.714;2023-12-14T19:22:37;100273.34;;;4.82;100.00
43071;BME280;36278;47.952;21.714;2023-12-14T19:25:08;100275.78;;;4.85;100.00
43071;BME280;36278;47.952;21.714;2023-12-14T19:27:36;100281.31;;;4.81;100.00
43071;BME280;36278;47.952;21.714;2023-12-14T19:30:07;100279.66;;;4.78;100.00
43071;BME280;36278;47.952;21.714;2023-12-14T19:32:34;100283.97;;;4.79;100.00
43071;BME280;36278;47.952;21.714;2023-12-14T19:35:04;100286.16;;;4.71;100.00
43071;BME280;36278;47.952;21.714;2023-12-14T19:37:31;100297.13;;;4.62;100.00
43071;BME280;36278;47.952;21.714;2023-12-14T19:39:58;100297.88;;;4.64;100.00
43071;BME280;36278;47.952;21.714;2023-12-14T19:42:23;100297.22;;;4.60;100.00
43071;BME280;36278;47.952;21.714;2023-12-14T19:44:49;100293.22;;;4.53;100.00
43071;BME280;36278;47.952;21.714;2023-12-14T19:47:15;100293.59;;;4.45;100.00
43071;BME280;36278;47.952;21.714;2023-12-14T19:49:44;100302.84;;;4.35;100.00
43071;BME280;36278;47.952;21.714;2023-12-14T19:52:10;100304.16;;;4.27;100.00
43071;BME280;36278;47.952;21.714;2023-12-14T19:54:40;100307.38;;;4.14;100.00